createdAt,value
2023-05-10T00:01:39.434Z,11.02
2023-05-10T00:06:43.084Z,11.02
2023-05-10T00:11:41.695Z,10.93
2023-05-10T00:16:43.156Z,11.90
2023-05-10T00:21:44.069Z,11.70
2023-05-10T00:26:43.990Z,11.40
2023-05-10T00:31:46.906Z,10.63
2023-05-10T00:36:47.722Z,10.80
2023-05-10T00:41:53.122Z,10.20
2023-05-10T00:46:59.503Z,10.27
2023-05-10T00:52:00.705Z,11.70
2023-05-10T00:57:03.430Z,11.23
2023-05-10T01:02:06.029Z,11.85
2023-05-10T01:07:04.249Z,11.20
2023-05-10T01:12:15.478Z,10.73
2023-05-10T01:17:19.960Z,11.75
2023-05-10T01:22:37.844Z,10.93
2023-05-10T01:27:48.889Z,11.20
2023-05-10T01:33:10.694Z,9.52
2023-05-10T01:38:22.277Z,9.82
2023-05-10T01:43:24.883Z,10.05
2023-05-10T01:48:25.727Z,9.73
2023-05-10T01:53:25.269Z,10.95
2023-05-10T01:58:29.568Z,10.57
2023-05-10T02:03:35.645Z,10.52
2023-05-10T02:08:39.616Z,11.75
2023-05-10T02:13:42.198Z,11.82
2023-05-10T02:18:53.992Z,11.27
2023-05-10T02:23:53.730Z,10.95
2023-05-10T02:28:54.757Z,9.85
2023-05-10T02:33:56.666Z,10.77
2023-05-10T02:39:08.653Z,10.98
2023-05-10T02:44:10.661Z,11.25
2023-05-10T02:49:09.238Z,13.88
2023-05-10T02:54:17.362Z,13.82
2023-05-10T02:59:17.397Z,14.77
2023-05-10T03:04:19.287Z,13.43
2023-05-10T03:09:23.419Z,12.65
2023-05-10T03:14:31.461Z,11.25
2023-05-10T03:20:01.598Z,10.70
2023-05-10T03:25:05.474Z,10.10
2023-05-10T03:35:21.485Z,10.20
2023-05-10T03:45:20.322Z,11.57
2023-05-10T03:50:22.971Z,11.45
2023-05-10T03:55:23.547Z,10.90
2023-05-10T04:00:55.896Z,10.00
2023-05-10T04:06:06.135Z,11.00
2023-05-10T04:11:09.095Z,11.23
2023-05-10T04:16:08.645Z,11.77
2023-05-10T04:21:12.012Z,12.00
2023-05-10T04:26:09.742Z,12.32
2023-05-10T04:31:11.678Z,11.70
2023-05-10T04:36:19.032Z,12.45
2023-05-10T04:41:17.684Z,12.88
2023-05-10T04:46:18.058Z,13.23
2023-05-10T04:51:19.079Z,13.95
2023-05-10T04:56:24.886Z,12.98
2023-05-10T05:01:28.106Z,14.43
2023-05-10T05:06:30.490Z,14.10
2023-05-10T05:11:35.132Z,15.65
2023-05-10T05:16:39.128Z,17.83
2023-05-10T05:21:42.477Z,19.35
2023-05-10T05:26:45.546Z,18.30
2023-05-10T05:31:48.221Z,19.15
2023-05-10T05:37:04.701Z,18.80
2023-05-10T05:42:38.253Z,17.70
2023-05-10T05:47:38.243Z,16.40
2023-05-10T05:52:44.553Z,15.85
2023-05-10T05:57:44.635Z,17.77
2023-05-10T06:02:51.298Z,18.80
2023-05-10T06:07:54.725Z,20.05
2023-05-10T06:12:58.751Z,19.83
2023-05-10T06:22:59.846Z,18.58
2023-05-10T06:27:59.851Z,21.08
2023-05-10T06:33:05.042Z,20.95
2023-05-10T06:38:08.934Z,16.98
2023-05-10T06:43:12.248Z,17.40
2023-05-10T06:48:26.994Z,18.40
2023-05-10T06:53:45.182Z,18.77
2023-05-10T06:59:16.266Z,14.45
2023-05-10T07:04:34.411Z,15.43
2023-05-10T07:09:42.183Z,13.98
2023-05-10T07:15:06.587Z,14.68
2023-05-10T07:20:32.020Z,13.05
2023-05-10T07:25:40.989Z,13.00
2023-05-10T07:31:10.379Z,11.65
2023-05-10T07:36:17.034Z,11.95
2023-05-10T07:41:20.376Z,11.70
2023-05-10T07:46:28.139Z,11.18
2023-05-10T07:51:36.865Z,10.73
2023-05-10T07:56:41.235Z,10.80
2023-05-10T08:01:40.646Z,9.15
2023-05-10T08:06:45.284Z,16.20
2023-05-10T08:11:50.790Z,6.78
2023-05-10T08:17:08.494Z,8.10
2023-05-10T08:22:25.331Z,7.18
2023-05-10T08:27:29.131Z,6.22
2023-05-10T08:32:46.999Z,5.28
2023-05-10T08:38:06.174Z,4.75
2023-05-10T08:43:10.081Z,4.28
2023-05-10T08:48:19.461Z,2.97
2023-05-10T08:53:30.750Z,1.67
2023-05-10T08:58:33.009Z,3.08
2023-05-10T09:03:45.821Z,2.08
2023-05-10T09:08:56.255Z,1.80
2023-05-10T09:14:01.490Z,1.67
2023-05-10T09:19:09.830Z,1.70
2023-05-10T09:24:09.489Z,2.05
2023-05-10T09:29:19.976Z,1.52
2023-05-10T09:34:40.079Z,2.72
2023-05-10T09:40:15.040Z,1.48
2023-05-10T09:45:38.487Z,1.60
2023-05-10T09:51:12.363Z,5.43
2023-05-10T09:56:56.450Z,1.67
2023-05-10T10:02:03.942Z,2.42
2023-05-10T10:07:10.898Z,1.88
2023-05-10T10:12:26.676Z,2.20
2023-05-10T10:17:31.117Z,1.98
2023-05-10T10:22:30.375Z,1.58
2023-05-10T10:28:17.479Z,2.75
2023-05-10T10:33:40.498Z,2.10
2023-05-10T10:38:53.412Z,2.47
2023-05-10T10:44:15.939Z,2.03
2023-05-10T10:49:26.629Z,2.22
2023-05-10T10:55:14.798Z,1.85
2023-05-10T11:08:37.561Z,1.67
2023-05-10T11:13:48.429Z,1.33
2023-05-10T11:19:02.720Z,1.55
2023-05-10T11:24:05.093Z,1.23
2023-05-10T11:29:06.723Z,1.33
2023-05-10T11:34:08.461Z,1.45
2023-05-10T11:39:07.409Z,1.40
2023-05-10T11:44:06.279Z,1.17
2023-05-10T11:49:08.097Z,1.30
2023-05-10T11:54:12.867Z,0.90
2023-05-10T11:59:17.305Z,1.30
2023-05-10T12:04:47.528Z,1.77
2023-05-10T12:10:12.965Z,1.25
2023-05-10T12:15:26.151Z,1.48
2023-05-10T12:25:55.216Z,2.05
2023-05-10T12:31:12.672Z,1.17
2023-05-10T12:36:15.720Z,1.63
2023-05-10T12:41:25.114Z,1.33
2023-05-10T12:46:34.500Z,1.42
2023-05-10T12:51:36.082Z,1.48
2023-05-10T12:56:38.250Z,1.52
2023-05-10T13:01:36.430Z,1.30
2023-05-10T13:06:39.573Z,1.58
2023-05-10T13:11:39.060Z,1.55
2023-05-10T13:16:42.673Z,1.55
2023-05-10T13:21:46.767Z,2.63
2023-05-10T13:26:48.757Z,1.30
2023-05-10T13:36:47.804Z,11.65
2023-05-10T13:41:50.327Z,2.03
2023-05-10T13:46:51.676Z,1.70
2023-05-10T13:51:54.264Z,1.55
2023-05-10T13:57:21.934Z,1.27
2023-05-10T14:02:22.823Z,1.52
2023-05-10T14:07:22.826Z,1.35
2023-05-10T14:12:23.940Z,2.05
2023-05-10T14:17:26.904Z,1.92
2023-05-10T14:22:26.513Z,1.27
2023-05-10T14:33:36.297Z,1.58
2023-05-10T14:45:16.008Z,1.30
2023-05-10T14:56:32.380Z,1.30
2023-05-10T15:01:38.694Z,1.25
2023-05-10T15:06:47.587Z,1.67
2023-05-10T15:17:46.751Z,2.05
2023-05-10T15:22:46.208Z,1.58
2023-05-10T15:34:16.442Z,1.67
2023-05-10T15:39:30.433Z,1.70
2023-05-10T15:45:27.416Z,1.90
2023-05-10T15:50:28.938Z,1.83
2023-05-10T15:55:27.158Z,4.70
2023-05-10T16:00:29.788Z,2.60
2023-05-10T16:05:41.637Z,2.22
2023-05-10T16:11:04.371Z,2.97
2023-05-10T16:16:04.332Z,2.30
2023-05-10T16:21:14.128Z,2.88
2023-05-10T16:26:18.081Z,3.08
2023-05-10T16:32:13.710Z,2.10
2023-05-10T16:37:26.800Z,1.83
2023-05-10T16:42:41.291Z,2.70
2023-05-10T16:53:45.252Z,2.40
2023-05-10T16:58:57.850Z,2.75
2023-05-10T17:04:16.639Z,2.70
2023-05-10T17:09:16.837Z,2.97
2023-05-10T17:14:16.360Z,2.85
2023-05-10T17:19:19.968Z,2.63
2023-05-10T17:24:22.248Z,3.40
2023-05-10T17:35:11.113Z,2.47
2023-05-10T17:40:17.146Z,2.20
2023-05-10T17:45:16.811Z,3.22
2023-05-10T17:50:18.692Z,2.33
2023-05-10T17:55:18.847Z,2.83
2023-05-10T18:00:24.229Z,2.78
2023-05-10T18:05:23.231Z,3.75
2023-05-10T18:10:26.137Z,2.88
2023-05-10T18:15:32.362Z,3.05
2023-05-10T18:20:34.683Z,2.63
2023-05-10T18:25:33.885Z,3.50
2023-05-10T18:30:41.212Z,3.80
2023-05-10T18:36:01.350Z,3.30
2023-05-10T18:41:30.183Z,3.10
2023-05-10T18:46:38.276Z,3.92
2023-05-10T18:51:42.058Z,3.28
2023-05-10T18:56:53.579Z,3.20
2023-05-10T19:01:57.086Z,3.60
2023-05-10T19:06:56.462Z,3.47
2023-05-10T19:11:57.469Z,2.90
2023-05-10T19:16:59.585Z,3.35
2023-05-10T19:22:13.648Z,2.45
2023-05-10T19:27:15.300Z,3.13
2023-05-10T19:32:23.160Z,2.20
2023-05-10T19:37:38.505Z,3.20
2023-05-10T19:42:40.833Z,2.70
2023-05-10T19:47:39.894Z,2.35
2023-05-10T19:52:44.301Z,2.75
2023-05-10T19:57:56.047Z,2.72
2023-05-10T20:03:07.769Z,2.17
2023-05-10T20:08:47.670Z,2.47
2023-05-10T20:14:11.979Z,2.60
2023-05-10T20:19:12.216Z,2.65
2023-05-10T20:29:45.289Z,2.35
2023-05-10T20:34:58.227Z,2.38
2023-05-10T20:39:57.734Z,2.33
2023-05-10T20:45:00.026Z,2.22
2023-05-10T20:49:57.391Z,2.85
2023-05-10T20:55:00.162Z,2.40
2023-05-10T21:00:06.114Z,5.32
2023-05-10T21:05:04.627Z,2.50
2023-05-10T21:10:10.314Z,2.95
2023-05-10T21:15:09.070Z,2.50
2023-05-10T21:20:23.647Z,2.90
2023-05-10T21:25:23.319Z,2.90
2023-05-10T21:30:25.414Z,2.20
2023-05-10T21:35:28.243Z,2.55
2023-05-10T21:40:31.342Z,3.30
2023-05-10T21:45:34.037Z,1.87
2023-05-10T21:50:34.897Z,2.22
2023-05-10T21:55:35.716Z,2.95
2023-05-10T22:00:36.469Z,2.05
2023-05-10T22:05:44.606Z,2.80
2023-05-10T22:10:49.872Z,2.50
2023-05-10T22:15:53.031Z,2.40
2023-05-10T22:20:52.616Z,2.53
2023-05-10T22:25:50.101Z,2.70
2023-05-10T22:30:51.653Z,2.97
2023-05-10T22:35:53.781Z,2.47
2023-05-10T22:40:51.806Z,2.60
2023-05-10T22:45:54.774Z,3.13
2023-05-10T22:50:53.449Z,3.37
2023-05-10T22:55:57.924Z,2.72
2023-05-10T23:00:56.204Z,3.42
2023-05-10T23:05:57.325Z,3.17
2023-05-10T23:10:59.609Z,3.10
2023-05-10T23:16:04.871Z,4.18
2023-05-10T23:21:03.597Z,5.03
2023-05-10T23:26:06.588Z,3.80
2023-05-10T23:31:18.846Z,3.00
2023-05-10T23:36:23.337Z,3.20
2023-05-10T23:41:25.098Z,4.00
2023-05-10T23:46:28.179Z,3.38
2023-05-10T23:51:37.153Z,3.20
2023-05-10T23:56:37.799Z,3.95
